createdAt,value
2018-02-24T00:00:37.594Z,25.70
2018-02-24T00:03:05.267Z,24.90
2018-02-24T00:05:32.999Z,26.80
2018-02-24T00:08:01.291Z,24.87
2018-02-24T00:10:30.259Z,26.33
2018-02-24T00:13:00.050Z,25.77
2018-02-24T00:15:28.951Z,24.00
2018-02-24T00:17:56.806Z,24.57
2018-02-24T00:20:24.922Z,23.10
2018-02-24T00:22:52.964Z,24.50
2018-02-24T00:25:20.835Z,27.73
2018-02-24T00:27:48.770Z,25.77
2018-02-24T00:30:16.799Z,24.83
2018-02-24T00:32:44.853Z,23.77
2018-02-24T00:35:12.842Z,25.40
2018-02-24T00:37:40.912Z,25.53
2018-02-24T00:40:08.734Z,25.17
2018-02-24T00:42:36.448Z,24.70
2018-02-24T00:45:04.412Z,25.97
2018-02-24T00:47:32.360Z,24.30
2018-02-24T00:50:01.747Z,24.00
2018-02-24T00:52:29.855Z,25.50
2018-02-24T00:54:57.926Z,23.83
2018-02-24T00:57:26.000Z,24.43
2018-02-24T00:59:53.942Z,23.67
2018-02-24T01:02:22.032Z,23.50
2018-02-24T01:04:50.112Z,22.00
2018-02-24T01:07:17.865Z,25.87
2018-02-24T01:09:45.934Z,20.93
2018-02-24T01:12:14.602Z,25.13
2018-02-24T01:14:42.430Z,25.93
2018-02-24T01:17:10.460Z,27.77
2018-02-24T01:19:38.543Z,24.80
2018-02-24T01:22:06.517Z,25.50
2018-02-24T01:24:34.380Z,22.07
2018-02-24T01:27:02.360Z,23.53
2018-02-24T01:29:30.420Z,25.80
2018-02-24T01:31:58.434Z,22.97
2018-02-24T01:34:26.106Z,25.90
2018-02-24T01:36:53.906Z,27.40
2018-02-24T01:39:21.583Z,23.13
2018-02-24T01:41:49.585Z,26.50
2018-02-24T01:44:17.520Z,25.27
2018-02-24T01:46:45.415Z,24.57
2018-02-24T01:49:13.406Z,26.40
2018-02-24T01:51:41.301Z,23.23
2018-02-24T01:54:09.496Z,22.00
2018-02-24T01:56:37.510Z,23.50
2018-02-24T01:59:05.264Z,23.80
2018-02-24T02:01:33.051Z,23.30
2018-02-24T02:04:01.119Z,24.97
2018-02-24T02:06:28.837Z,25.00
2018-02-24T02:08:56.600Z,24.27
2018-02-24T02:11:24.339Z,25.50
2018-02-24T02:13:52.202Z,24.30
2018-02-24T02:16:20.116Z,25.90
2018-02-24T02:18:48.986Z,23.40
2018-02-24T02:21:16.971Z,27.17
2018-02-24T02:23:44.964Z,23.90
2018-02-24T02:26:13.103Z,24.53
2018-02-24T02:28:40.977Z,28.30
2018-02-24T02:31:09.099Z,24.77
2018-02-24T02:33:37.126Z,21.27
2018-02-24T02:36:05.179Z,25.93
2018-02-24T02:38:33.120Z,22.63
2018-02-24T02:41:00.983Z,25.17
2018-02-24T02:43:28.851Z,24.13
2018-02-24T02:45:56.771Z,26.63
2018-02-24T02:48:24.828Z,25.47
2018-02-24T02:50:52.798Z,26.93
2018-02-24T02:53:20.870Z,24.73
2018-02-24T02:55:49.938Z,26.37
2018-02-24T02:58:18.772Z,27.07
2018-02-24T03:00:46.695Z,26.67
2018-02-24T03:03:14.369Z,26.33
2018-02-24T03:05:42.121Z,25.93
2018-02-24T03:08:09.830Z,27.93
2018-02-24T03:10:37.583Z,25.87
2018-02-24T03:13:05.306Z,24.53
2018-02-24T03:15:32.990Z,26.80
2018-02-24T03:18:01.076Z,27.57
2018-02-24T03:20:28.903Z,22.97
2018-02-24T03:22:56.797Z,25.57
2018-02-24T03:25:24.894Z,23.47
2018-02-24T03:27:52.853Z,26.73
2018-02-24T03:30:20.726Z,26.07
2018-02-24T03:32:48.891Z,26.77
2018-02-24T03:35:16.885Z,25.20
2018-02-24T03:37:44.829Z,23.07
2018-02-24T03:40:12.561Z,24.60
2018-02-24T03:42:40.434Z,25.07
2018-02-24T03:45:08.277Z,22.80
2018-02-24T03:47:36.144Z,24.87
2018-02-24T03:50:04.984Z,26.67
2018-02-24T03:52:33.046Z,25.43
2018-02-24T03:55:00.939Z,21.87
2018-02-24T03:57:28.858Z,24.43
2018-02-24T03:59:57.784Z,26.23
2018-02-24T04:02:25.841Z,25.70
2018-02-24T04:04:53.572Z,24.23
2018-02-24T04:07:21.528Z,22.80
2018-02-24T04:09:49.560Z,24.57
2018-02-24T04:12:17.297Z,24.73
2018-02-24T04:14:45.396Z,25.43
2018-02-24T04:17:13.218Z,24.30
2018-02-24T04:19:41.136Z,23.77
2018-02-24T04:22:09.714Z,23.93
2018-02-24T04:24:37.648Z,23.03
2018-02-24T04:27:05.512Z,24.97
2018-02-24T04:29:33.521Z,25.10
2018-02-24T04:32:02.370Z,24.90
2018-02-24T04:34:30.138Z,22.73
2018-02-24T04:36:57.947Z,24.67
2018-02-24T04:39:25.925Z,25.53
2018-02-24T04:41:54.801Z,26.27
2018-02-24T04:44:22.803Z,39.27
2018-02-24T04:46:50.699Z,34.30
2018-02-24T04:49:18.664Z,27.40
2018-02-24T04:51:46.609Z,25.17
2018-02-24T04:54:15.411Z,25.10
2018-02-24T04:56:43.989Z,27.57
2018-02-24T04:59:11.982Z,26.83
2018-02-24T05:01:39.847Z,25.47
2018-02-24T05:04:07.570Z,24.27
2018-02-24T05:06:35.570Z,25.37
2018-02-24T05:09:03.504Z,25.93
2018-02-24T05:11:31.591Z,30.90
2018-02-24T05:13:59.582Z,30.67
2018-02-24T05:16:27.703Z,27.13
2018-02-24T05:18:55.879Z,25.53
2018-02-24T05:21:24.564Z,28.70
2018-02-24T05:23:52.661Z,22.97
2018-02-24T05:26:20.723Z,22.87
2018-02-24T05:28:48.421Z,23.37
2018-02-24T05:31:16.547Z,25.33
2018-02-24T05:33:44.415Z,26.23
2018-02-24T05:36:12.190Z,24.00
2018-02-24T05:38:40.174Z,26.77
2018-02-24T05:41:08.291Z,24.70
2018-02-24T05:43:36.260Z,22.87
2018-02-24T05:46:04.363Z,24.30
2018-02-24T05:48:32.198Z,24.00
2018-02-24T05:50:59.920Z,26.80
2018-02-24T05:53:27.951Z,24.27
2018-02-24T05:55:55.920Z,26.03
2018-02-24T05:58:23.787Z,22.53
2018-02-24T06:00:51.676Z,24.33
2018-02-24T06:03:19.692Z,24.80
2018-02-24T06:05:47.687Z,24.30
2018-02-24T06:08:15.582Z,24.00
2018-02-24T06:10:43.464Z,24.00
2018-02-24T06:13:11.609Z,25.10
2018-02-24T06:15:39.664Z,23.23
2018-02-24T06:18:07.781Z,25.93
2018-02-24T06:20:35.935Z,23.80
2018-02-24T06:23:05.030Z,24.37
2018-02-24T06:25:32.969Z,23.53
2018-02-24T06:28:00.971Z,24.37
2018-02-24T06:30:28.854Z,21.70
2018-02-24T06:32:56.829Z,25.37
2018-02-24T06:35:24.931Z,21.33
2018-02-24T06:37:52.792Z,22.00
2018-02-24T06:40:21.154Z,24.40
2018-02-24T06:42:49.245Z,22.70
2018-02-24T06:45:17.853Z,21.80
2018-02-24T06:47:45.957Z,19.43
2018-02-24T06:50:13.987Z,21.57
2018-02-24T06:52:41.854Z,22.83
2018-02-24T06:55:10.271Z,23.93
2018-02-24T06:57:38.484Z,24.27
2018-02-24T07:00:06.608Z,22.37
2018-02-24T07:02:34.691Z,22.30
2018-02-24T07:05:02.690Z,23.33
2018-02-24T07:07:30.837Z,20.77
2018-02-24T07:09:59.804Z,24.23
2018-02-24T07:12:27.608Z,22.53
2018-02-24T07:14:55.603Z,23.73
2018-02-24T07:17:23.577Z,24.10
2018-02-24T07:19:51.428Z,21.40
2018-02-24T07:22:19.525Z,25.80
2018-02-24T07:24:47.761Z,26.00
2018-02-24T07:27:16.615Z,21.13
2018-02-24T07:29:44.588Z,20.27
2018-02-24T07:32:12.578Z,23.07
2018-02-24T07:34:40.460Z,21.00
2018-02-24T07:37:08.385Z,24.53
2018-02-24T07:39:36.685Z,21.10
2018-02-24T07:42:04.568Z,21.73
2018-02-24T07:44:32.446Z,23.60
2018-02-24T07:47:01.017Z,25.27
2018-02-24T07:49:29.510Z,29.47
2018-02-24T07:51:58.796Z,32.57
2018-02-24T07:54:26.972Z,30.77
2018-02-24T07:56:54.848Z,26.53
2018-02-24T07:59:22.984Z,25.93
2018-02-24T08:01:50.852Z,24.30
2018-02-24T08:04:18.792Z,23.63
2018-02-24T08:06:47.521Z,24.63
2018-02-24T08:09:15.607Z,23.13
2018-02-24T08:11:43.574Z,22.77
2018-02-24T08:14:11.512Z,22.80
2018-02-24T08:16:39.355Z,23.60
2018-02-24T08:19:08.303Z,25.77
2018-02-24T08:21:37.009Z,23.30
2018-02-24T08:24:05.030Z,23.40
2018-02-24T08:26:32.954Z,24.00
2018-02-24T08:29:00.987Z,22.40
2018-02-24T08:31:29.057Z,21.40
2018-02-24T08:33:57.040Z,23.90
2018-02-24T08:36:25.712Z,22.40
2018-02-24T08:38:53.803Z,21.10
2018-02-24T08:41:21.887Z,20.87
2018-02-24T08:43:50.555Z,19.90
2018-02-24T08:46:18.628Z,20.87
2018-02-24T08:48:47.497Z,19.90
2018-02-24T08:51:15.591Z,20.97
2018-02-24T08:53:43.484Z,18.87
2018-02-24T08:56:11.947Z,18.97
2018-02-24T08:58:39.723Z,20.77
2018-02-24T09:01:07.449Z,18.27
2018-02-24T09:03:35.329Z,19.40
2018-02-24T09:06:03.136Z,19.73
2018-02-24T09:08:30.830Z,21.07
2018-02-24T09:10:58.611Z,18.97
2018-02-24T09:13:26.446Z,18.50
2018-02-24T09:15:54.289Z,20.07
2018-02-24T09:18:22.091Z,16.97
2018-02-24T09:20:49.904Z,17.97
2018-02-24T09:23:17.654Z,18.33
2018-02-24T09:25:46.470Z,17.10
2018-02-24T09:28:14.211Z,19.07
2018-02-24T09:30:42.026Z,20.30
2018-02-24T09:33:09.852Z,17.97
2018-02-24T09:35:37.590Z,17.60
2018-02-24T09:38:05.355Z,19.70
2018-02-24T09:40:33.127Z,18.67
2018-02-24T09:43:00.908Z,20.13
2018-02-24T09:45:30.192Z,21.30
2018-02-24T09:47:57.945Z,18.30
2018-02-24T09:50:25.833Z,18.83
2018-02-24T09:52:53.606Z,19.23
2018-02-24T09:55:21.315Z,18.70
2018-02-24T09:57:49.076Z,17.90
2018-02-24T10:00:16.819Z,17.83
2018-02-24T10:02:44.587Z,18.30
2018-02-24T10:05:12.435Z,18.30
2018-02-24T10:07:40.529Z,18.50
2018-02-24T10:10:08.598Z,17.53
2018-02-24T10:12:36.764Z,18.33
2018-02-24T10:15:05.216Z,17.70
2018-02-24T10:17:34.053Z,18.40
2018-02-24T10:20:01.775Z,19.13
2018-02-24T10:22:29.796Z,15.77
2018-02-24T10:24:57.751Z,16.20
2018-02-24T10:27:25.450Z,17.50
2018-02-24T10:29:54.275Z,17.60
2018-02-24T10:32:22.033Z,16.60
2018-02-24T10:34:49.776Z,15.33
2018-02-24T10:37:17.529Z,17.50
2018-02-24T10:39:45.307Z,15.83
2018-02-24T10:42:13.096Z,16.10
2018-02-24T10:44:40.780Z,15.53
2018-02-24T10:47:08.825Z,14.27
2018-02-24T10:49:36.555Z,13.00
2018-02-24T10:52:04.267Z,12.17
2018-02-24T10:54:32.048Z,12.93
2018-02-24T10:56:59.786Z,14.10
2018-02-24T10:59:27.550Z,15.23
2018-02-24T11:01:55.343Z,13.50
2018-02-24T11:04:23.065Z,12.97
2018-02-24T11:06:50.844Z,12.57
2018-02-24T11:09:18.629Z,15.37
2018-02-24T11:11:46.429Z,12.20
2018-02-24T11:14:14.400Z,15.10
2018-02-24T11:16:42.245Z,14.57
2018-02-24T11:19:12.256Z,12.87
2018-02-24T11:21:40.156Z,12.33
2018-02-24T11:24:08.121Z,14.10
2018-02-24T11:26:35.990Z,13.97
2018-02-24T11:29:04.134Z,12.20
2018-02-24T11:31:33.268Z,12.07
2018-02-24T11:34:01.109Z,9.43
2018-02-24T11:36:28.861Z,10.83
2018-02-24T11:38:57.603Z,15.13
2018-02-24T11:41:25.389Z,12.27
2018-02-24T11:43:53.210Z,10.90
2018-02-24T11:46:21.021Z,14.80
2018-02-24T11:48:50.056Z,14.63
2018-02-24T11:51:18.060Z,14.93
2018-02-24T11:53:46.665Z,14.77
2018-02-24T11:56:15.221Z,13.17
2018-02-24T11:58:43.241Z,12.70
2018-02-24T12:01:11.253Z,12.73
2018-02-24T12:03:39.348Z,13.00
2018-02-24T12:06:07.410Z,12.50
2018-02-24T12:08:36.081Z,12.43
2018-02-24T12:11:03.869Z,12.03
2018-02-24T12:13:31.668Z,12.30
2018-02-24T12:16:00.031Z,13.07
2018-02-24T12:18:27.829Z,13.70
2018-02-24T12:20:55.601Z,13.07
2018-02-24T12:23:24.057Z,11.60
2018-02-24T12:25:52.248Z,10.70
2018-02-24T12:28:20.698Z,9.93
2018-02-24T12:30:48.754Z,12.17
2018-02-24T12:33:16.724Z,10.40
2018-02-24T12:35:44.442Z,10.67
2018-02-24T12:38:13.630Z,12.30
2018-02-24T12:40:41.679Z,9.80
2018-02-24T12:43:10.872Z,11.70
2018-02-24T12:45:38.980Z,11.57
2018-02-24T12:48:07.017Z,10.43
2018-02-24T12:50:35.067Z,10.93
2018-02-24T12:53:03.057Z,9.97
2018-02-24T12:55:30.820Z,10.30
2018-02-24T12:57:58.534Z,6.90
2018-02-24T13:00:26.508Z,9.80
2018-02-24T13:02:54.523Z,9.30
2018-02-24T13:05:22.516Z,10.13
2018-02-24T13:07:50.567Z,8.50
2018-02-24T13:10:18.639Z,7.07
2018-02-24T13:12:46.505Z,6.10
2018-02-24T13:15:14.510Z,9.57
2018-02-24T13:17:42.302Z,9.63
2018-02-24T13:20:10.167Z,10.13
2018-02-24T13:22:38.997Z,6.20
2018-02-24T13:25:07.278Z,7.67
2018-02-24T13:27:35.941Z,7.67
2018-02-24T13:30:04.259Z,5.40
2018-02-24T13:32:32.399Z,6.57
2018-02-24T13:35:00.468Z,7.90
2018-02-24T13:37:28.619Z,7.73
2018-02-24T13:39:56.507Z,6.90
2018-02-24T13:42:25.373Z,7.10
2018-02-24T13:44:54.006Z,7.03
2018-02-24T13:47:22.878Z,7.17
2018-02-24T13:49:51.022Z,5.73
2018-02-24T13:52:18.986Z,6.73
2018-02-24T13:54:47.109Z,8.53
2018-02-24T13:57:15.213Z,5.10
2018-02-24T13:59:43.251Z,8.03
2018-02-24T14:02:11.324Z,9.50
2018-02-24T14:04:39.387Z,8.70
2018-02-24T14:07:07.470Z,8.70
2018-02-24T14:09:35.644Z,9.60
2018-02-24T14:12:05.121Z,7.27
2018-02-24T14:14:33.166Z,8.90
2018-02-24T14:17:01.672Z,9.00
2018-02-24T14:19:29.652Z,6.60
2018-02-24T14:21:58.416Z,9.90
2018-02-24T14:24:27.728Z,9.10
2018-02-24T14:26:55.845Z,8.90
2018-02-24T14:29:23.989Z,9.83
2018-02-24T14:31:53.732Z,7.17
2018-02-24T14:34:21.746Z,8.80
2018-02-24T14:36:49.858Z,8.50
2018-02-24T14:39:17.566Z,9.10
2018-02-24T14:41:45.347Z,10.07
2018-02-24T14:44:13.107Z,9.67
2018-02-24T14:46:41.226Z,10.87
2018-02-24T14:49:10.848Z,12.57
2018-02-24T14:51:39.961Z,9.67
2018-02-24T14:54:08.308Z,11.20
2018-02-24T14:56:36.405Z,7.50
2018-02-24T14:59:04.439Z,10.00
2018-02-24T15:01:32.267Z,8.93
2018-02-24T15:03:59.998Z,10.80
2018-02-24T15:06:28.057Z,11.47
2018-02-24T15:08:56.210Z,9.40
2018-02-24T15:11:24.300Z,8.67
2018-02-24T15:13:53.170Z,10.10
2018-02-24T15:16:21.138Z,8.20
2018-02-24T15:18:49.228Z,9.17
2018-02-24T15:21:17.406Z,9.60
2018-02-24T15:23:45.387Z,10.40
2018-02-24T15:26:14.249Z,7.67
2018-02-24T15:28:42.593Z,10.10
2018-02-24T15:31:11.410Z,9.33
2018-02-24T15:33:39.478Z,7.70
2018-02-24T15:36:08.243Z,9.00
2018-02-24T15:38:36.266Z,7.03
2018-02-24T15:41:04.335Z,11.10
2018-02-24T15:43:32.212Z,10.30
2018-02-24T15:45:59.940Z,7.87
2018-02-24T15:48:27.735Z,17.90
2018-02-24T15:50:55.444Z,8.13
2018-02-24T15:53:24.391Z,7.90
2018-02-24T15:55:52.275Z,8.80
2018-02-24T15:58:20.038Z,7.17
2018-02-24T16:00:47.816Z,11.00
2018-02-24T16:03:15.629Z,12.73
2018-02-24T16:05:43.344Z,9.47
2018-02-24T16:08:11.121Z,12.03
2018-02-24T16:10:39.011Z,8.67
2018-02-24T16:13:06.814Z,18.97
2018-02-24T16:15:34.602Z,9.33
2018-02-24T16:18:02.380Z,10.37
2018-02-24T16:20:30.091Z,10.97
2018-02-24T16:22:57.964Z,9.53
2018-02-24T16:25:25.775Z,5.20
2018-02-24T16:27:53.747Z,8.10
2018-02-24T16:30:22.382Z,5.73
2018-02-24T16:32:53.012Z,5.80
2018-02-24T16:35:21.799Z,6.00
2018-02-24T16:37:50.707Z,6.50
2018-02-24T16:40:18.585Z,7.10
2018-02-24T16:42:46.751Z,5.00
2018-02-24T16:45:14.863Z,6.00
2018-02-24T16:47:42.761Z,11.03
2018-02-24T16:50:10.742Z,7.40
2018-02-24T16:52:38.794Z,6.20
2018-02-24T16:55:07.215Z,8.40
2018-02-24T16:57:35.385Z,9.00
2018-02-24T17:00:03.397Z,4.60
2018-02-24T17:02:31.405Z,6.10
2018-02-24T17:04:59.113Z,6.53
2018-02-24T17:07:27.063Z,6.30
2018-02-24T17:09:57.404Z,6.87
2018-02-24T17:12:25.426Z,6.20
2018-02-24T17:14:53.517Z,6.43
2018-02-24T17:17:22.423Z,6.50
2018-02-24T17:19:52.139Z,6.60
2018-02-24T17:22:21.036Z,6.80
2018-02-24T17:24:49.564Z,7.43
2018-02-24T17:27:17.883Z,5.87
2018-02-24T17:29:47.990Z,5.50
2018-02-24T17:32:16.156Z,6.17
2018-02-24T17:34:45.102Z,6.47
2018-02-24T17:37:17.253Z,7.57
2018-02-24T17:39:46.433Z,8.20
2018-02-24T17:42:14.605Z,7.50
2018-02-24T17:44:50.667Z,6.33
2018-02-24T17:47:19.716Z,7.83
2018-02-24T17:49:50.396Z,6.47
2018-02-24T17:52:19.513Z,9.63
2018-02-24T17:54:49.531Z,12.87
2018-02-24T17:57:22.454Z,16.27
2018-02-24T17:59:50.308Z,10.37
2018-02-24T18:02:18.158Z,12.37
2018-02-24T18:04:46.098Z,11.60
2018-02-24T18:07:13.926Z,8.23
2018-02-24T18:09:41.732Z,7.80
2018-02-24T18:12:11.100Z,9.50
2018-02-24T18:14:41.057Z,4.53
2018-02-24T18:17:14.302Z,6.47
2018-02-24T18:19:51.143Z,8.40
2018-02-24T18:22:20.628Z,8.30
2018-02-24T18:25:04.804Z,8.07
2018-02-24T18:42:39.306Z,7.10
2018-02-24T18:45:14.592Z,8.83
2018-02-24T18:54:22.688Z,7.00
2018-02-24T19:09:42.337Z,8.43
2018-02-24T19:12:11.823Z,8.37
2018-02-24T19:14:39.742Z,7.30
2018-02-24T19:17:07.653Z,7.77
2018-02-24T19:19:35.546Z,8.23
2018-02-24T19:22:12.127Z,9.37
2018-02-24T19:24:41.069Z,8.87
2018-02-24T19:27:08.905Z,9.90
2018-02-24T19:29:36.792Z,8.00
2018-02-24T19:32:05.561Z,9.53
2018-02-24T19:34:34.042Z,8.60
2018-02-24T19:37:01.794Z,7.03
2018-02-24T19:39:30.911Z,8.40
2018-02-24T19:45:29.194Z,10.00
2018-02-24T19:47:57.022Z,11.03
2018-02-24T19:50:28.823Z,8.60
2018-02-24T19:52:57.610Z,8.23
2018-02-24T19:55:26.646Z,7.30
2018-02-24T19:58:20.757Z,7.67
2018-02-24T20:00:56.784Z,8.73
2018-02-24T20:06:15.649Z,5.67
2018-02-24T20:11:50.114Z,6.10
2018-02-24T20:14:18.067Z,9.13
2018-02-24T20:16:51.896Z,7.70
2018-02-24T20:19:19.726Z,8.10
2018-02-24T20:21:50.332Z,8.00
2018-02-24T20:24:25.000Z,8.40
2018-02-24T20:27:02.430Z,8.77
2018-02-24T20:29:30.994Z,8.00
2018-02-24T20:32:01.421Z,9.37
2018-02-24T20:34:30.427Z,8.63
2018-02-24T20:36:58.240Z,8.83
2018-02-24T20:39:27.255Z,7.10
2018-02-24T20:42:01.987Z,7.67
2018-02-24T20:44:32.004Z,7.50
2018-02-24T20:47:04.168Z,5.23
2018-02-24T20:49:32.160Z,4.80
2018-02-24T20:52:00.034Z,6.50
2018-02-24T20:54:31.214Z,7.83
2018-02-24T20:57:15.332Z,7.10
2018-02-24T20:59:43.800Z,6.33
2018-02-24T21:02:13.977Z,6.83
2018-02-24T21:04:43.177Z,5.90
2018-02-24T21:25:24.706Z,5.47
2018-02-24T21:46:07.401Z,6.73
